Time;durP1;ratioP1;P1;durP2;ratioP2;P2;SDS_P1;SDS_P2;PMS_P1;PMS_P2;Temp;Humidity;BMP_temperature;BMP_pressure;BME280_temperature;BME280_humidity;BME280_pressure;Samples;Min_cycle;Max_cycle;Signal;HPM_P1;HPM_P2
2023/04/13 00:02:22;;;;;;;0.55;0.55;;;9.70;99.90;;;;;;4998334;28;20220;-63
2023/04/13 00:04:50;;;;;;;0.70;0.70;;;9.80;99.90;;;;;;4997698;28;20623;-63
2023/04/13 00:07:17;;;;;;;0.40;0.40;;;9.70;99.90;;;;;;4996329;28;20296;-63
2023/04/13 00:09:46;;;;;;;0.57;0.40;;;9.80;99.90;;;;;;4995097;28;20210;-62
2023/04/13 00:12:13;;;;;;;0.50;0.50;;;9.70;99.90;;;;;;4997046;28;20217;-62
2023/04/13 00:14:40;;;;;;;0.60;0.60;;;9.70;99.90;;;;;;5005217;28;20226;-63
2023/04/13 00:17:07;;;;;;;0.50;0.50;;;9.60;99.90;;;;;;5004673;28;20623;-63
2023/04/13 00:19:35;;;;;;;0.40;0.40;;;9.50;99.90;;;;;;4996210;28;20226;-63
2023/04/13 00:22:03;;;;;;;0.30;0.30;;;9.40;99.90;;;;;;4997255;28;20684;-62
2023/04/13 00:24:32;;;;;;;0.60;0.60;;;9.30;99.90;;;;;;4995935;28;20229;-64
2023/04/13 00:27:00;;;;;;;0.50;0.50;;;9.10;99.90;;;;;;4997539;28;20269;-63
2023/04/13 00:29:26;;;;;;;0.50;0.50;;;8.90;99.90;;;;;;4996170;28;20307;-63
2023/04/13 00:31:53;;;;;;;0.70;0.70;;;8.80;99.90;;;;;;4996203;28;20293;-62
2023/04/13 00:34:20;;;;;;;0.68;0.68;;;8.70;99.90;;;;;;4996197;28;20215;-62
2023/04/13 00:36:47;;;;;;;0.43;0.43;;;8.70;99.90;;;;;;4997627;28;20212;-63
2023/04/13 00:39:21;;;;;;;0.43;0.43;;;8.70;99.90;;;;;;4998814;28;20236;-63
2023/04/13 00:41:49;;;;;;;0.45;0.45;;;8.60;99.90;;;;;;4996158;28;20264;-63
2023/04/13 00:44:18;;;;;;;0.50;0.50;;;8.60;99.90;;;;;;4997178;28;20636;-62
2023/04/13 00:46:46;;;;;;;0.47;0.47;;;8.70;99.90;;;;;;4997868;28;20277;-63
2023/04/13 00:49:14;;;;;;;0.63;0.63;;;8.70;99.90;;;;;;4998731;28;20233;-62
2023/04/13 00:51:41;;;;;;;0.68;0.68;;;8.70;99.90;;;;;;5010025;28;20212;-62
2023/04/13 00:54:08;;;;;;;0.47;0.47;;;8.70;99.90;;;;;;4994938;28;20212;-63
2023/04/13 00:56:36;;;;;;;0.60;0.60;;;8.60;99.90;;;;;;4994095;28;20392;-63
2023/04/13 00:59:03;;;;;;;0.70;0.70;;;8.50;99.90;;;;;;4992473;28;20233;-63
2023/04/13 01:01:30;;;;;;;0.63;0.63;;;8.50;99.90;;;;;;4994055;28;20210;-63
2023/04/13 01:03:58;;;;;;;0.50;0.50;;;8.50;99.90;;;;;;4989468;28;20210;-62
2023/04/13 01:06:32;;;;;;;0.43;0.43;;;8.40;99.90;;;;;;4993751;28;20704;-62
2023/04/13 01:09:07;;;;;;;0.50;0.50;;;8.40;99.90;;;;;;4993733;28;20287;-63
2023/04/13 01:11:41;;;;;;;0.68;0.68;;;8.30;99.90;;;;;;4993868;28;20684;-63
2023/04/13 01:14:15;;;;;;;0.47;0.47;;;8.20;99.90;;;;;;4993825;28;20245;-63
2023/04/13 01:16:47;;;;;;;0.40;0.40;;;8.30;99.90;;;;;;4994130;28;20205;-63
2023/04/13 01:19:22;;;;;;;0.50;0.50;;;8.40;99.90;;;;;;4993888;28;20735;-61
2023/04/13 01:21:53;;;;;;;0.70;0.70;;;8.40;99.90;;;;;;4994633;28;20205;-62
2023/04/13 01:24:31;;;;;;;0.60;0.60;;;8.40;99.90;;;;;;4994616;28;20241;-64
2023/04/13 01:27:08;;;;;;;0.40;0.40;;;8.40;99.90;;;;;;4994305;28;20209;-63
2023/04/13 01:29:38;;;;;;;0.50;0.50;;;8.40;99.90;;;;;;4994450;28;20260;-65
2023/04/13 01:32:05;;;;;;;0.50;0.50;;;8.30;99.90;;;;;;4994206;28;20206;-62
2023/04/13 01:34:33;;;;;;;1.00;0.60;;;8.20;99.90;;;;;;4994408;28;20209;-64
2023/04/13 01:37:03;;;;;;;0.40;0.40;;;8.10;99.90;;;;;;4993842;28;20691;-64
2023/04/13 01:39:32;;;;;;;0.70;0.70;;;8.10;99.90;;;;;;4993653;28;20712;-63
2023/04/13 01:41:59;;;;;;;0.50;0.50;;;8.00;99.90;;;;;;4993878;28;20216;-62
2023/04/13 01:44:33;;;;;;;0.40;0.40;;;8.00;99.90;;;;;;4993414;28;20669;-64
2023/04/13 01:47:14;;;;;;;0.50;0.50;;;7.90;99.90;;;;;;4993963;28;20337;-65
2023/04/13 01:49:43;;;;;;;0.60;0.60;;;7.80;99.90;;;;;;4993028;28;20260;-64
2023/04/13 01:52:11;;;;;;;0.60;0.60;;;7.70;99.90;;;;;;4993482;28;20213;-64
2023/04/13 01:54:42;;;;;;;0.50;0.50;;;7.60;99.90;;;;;;4993778;28;20217;-64
2023/04/13 01:57:09;;;;;;;0.70;0.70;;;7.60;99.90;;;;;;4993998;28;20212;-64
2023/04/13 01:59:36;;;;;;;0.43;0.43;;;7.60;99.90;;;;;;5001637;28;20256;-64
2023/04/13 02:02:05;;;;;;;0.80;0.80;;;7.60;99.90;;;;;;5005012;28;20220;-64
2023/04/13 02:04:32;;;;;;;0.40;0.40;;;7.60;99.90;;;;;;5000481;28;20206;-64
2023/04/13 02:06:59;;;;;;;0.60;0.60;;;7.50;99.90;;;;;;4993485;28;20209;-64
2023/04/13 02:09:27;;;;;;;0.52;0.52;;;7.50;99.90;;;;;;4992192;28;20230;-64
2023/04/13 02:11:54;;;;;;;0.60;0.60;;;7.50;99.90;;;;;;4996251;28;20214;-63
2023/04/13 02:14:21;;;;;;;0.57;0.57;;;7.50;99.90;;;;;;4993854;28;20213;-64
2023/04/13 02:16:48;;;;;;;0.60;0.60;;;7.50;99.90;;;;;;4993011;28;20213;-64
2023/04/13 02:19:16;;;;;;;0.60;0.60;;;7.50;99.90;;;;;;4991905;28;20226;-64
2023/04/13 02:21:43;;;;;;;0.63;0.63;;;7.50;99.90;;;;;;4992286;28;20677;-64
2023/04/13 02:24:10;;;;;;;0.60;0.60;;;7.50;99.90;;;;;;4992362;28;20677;-64
2023/04/13 02:26:37;;;;;;;0.68;0.68;;;7.40;99.90;;;;;;4993052;28;20234;-64
2023/04/13 02:29:04;;;;;;;0.63;0.60;;;7.30;99.90;;;;;;4992529;28;20709;-65
2023/04/13 02:31:32;;;;;;;0.85;0.85;;;7.30;99.90;;;;;;4992519;28;20236;-63
2023/04/13 02:33:59;;;;;;;0.60;0.60;;;7.20;99.90;;;;;;4992469;28;20212;-64
2023/04/13 02:36:27;;;;;;;0.30;0.30;;;7.20;99.90;;;;;;4992330;28;20202;-64
2023/04/13 02:38:54;;;;;;;0.60;0.60;;;7.20;99.90;;;;;;4992289;28;20236;-63
2023/04/13 02:41:21;;;;;;;0.50;0.50;;;7.20;99.90;;;;;;4992010;28;20228;-64
2023/04/13 02:43:51;;;;;;;0.55;0.55;;;7.20;99.90;;;;;;4994548;28;20202;-64
2023/04/13 02:46:17;;;;;;;0.50;0.50;;;7.10;99.90;;;;;;4992156;28;20226;-64
2023/04/13 02:48:44;;;;;;;0.70;0.70;;;7.10;99.90;;;;;;4992122;28;20244;-64
2023/04/13 02:51:12;;;;;;;0.70;0.70;;;7.10;99.90;;;;;;4991426;28;20206;-64
2023/04/13 02:53:40;;;;;;;0.65;0.65;;;7.10;99.90;;;;;;4992552;28;20268;-64
2023/04/13 02:56:08;;;;;;;0.85;0.85;;;7.00;99.90;;;;;;4992097;28;20976;-63
2023/04/13 02:58:35;;;;;;;1.23;0.77;;;7.10;99.90;;;;;;4992313;28;20681;-64
2023/04/13 03:01:02;;;;;;;0.90;0.90;;;7.10;99.90;;;;;;4991956;28;20205;-65
2023/04/13 03:03:29;;;;;;;0.70;0.70;;;7.20;99.90;;;;;;4992588;28;20260;-64
2023/04/13 03:05:56;;;;;;;0.70;0.70;;;7.30;99.90;;;;;;4992910;28;20277;-64
2023/04/13 03:08:24;;;;;;;0.68;0.68;;;7.30;99.90;;;;;;4992256;28;20225;-63
2023/04/13 03:10:53;;;;;;;0.77;0.77;;;7.40;99.90;;;;;;4992141;28;20222;-63
2023/04/13 03:13:20;;;;;;;0.80;0.80;;;7.50;99.90;;;;;;4992379;28;20206;-64
2023/04/13 03:15:47;;;;;;;0.70;0.70;;;7.60;99.90;;;;;;5000359;28;20225;-63
2023/04/13 03:18:15;;;;;;;0.77;0.77;;;7.60;99.90;;;;;;5002817;28;20321;-63
2023/04/13 03:20:42;;;;;;;0.75;0.75;;;7.70;99.90;;;;;;4991850;28;20696;-64
2023/04/13 03:23:09;;;;;;;0.70;0.70;;;7.70;99.90;;;;;;4997388;28;20206;-64
2023/04/13 03:25:36;;;;;;;0.40;0.40;;;7.70;99.90;;;;;;5009765;28;20660;-63
2023/04/13 03:28:04;;;;;;;0.67;0.67;;;7.70;99.90;;;;;;5008846;28;20229;-64
2023/04/13 03:30:31;;;;;;;1.00;1.00;;;7.70;99.90;;;;;;5007517;28;20206;-63
2023/04/13 03:32:58;;;;;;;1.67;0.70;;;7.70;99.90;;;;;;5007006;28;20210;-64
2023/04/13 03:35:25;;;;;;;0.60;0.60;;;7.70;99.90;;;;;;5000741;28;20289;-64
2023/04/13 03:37:52;;;;;;;0.85;0.85;;;7.70;99.90;;;;;;4997522;28;20526;-63
2023/04/13 03:40:18;;;;;;;0.80;0.80;;;7.80;99.90;;;;;;4997374;28;20209;-63
2023/04/13 03:42:45;;;;;;;0.80;0.80;;;7.80;99.90;;;;;;5003008;28;20228;-63
2023/04/13 03:45:13;;;;;;;0.80;0.80;;;7.90;99.90;;;;;;5013990;28;20205;-63
2023/04/13 03:47:40;;;;;;;0.77;0.77;;;7.90;99.90;;;;;;5014369;28;20257;-63
2023/04/13 03:50:08;;;;;;;0.65;0.65;;;8.00;99.90;;;;;;4999506;28;20289;-64
2023/04/13 03:52:35;;;;;;;0.70;0.70;;;8.00;99.90;;;;;;4995731;28;20619;-63
2023/04/13 03:55:02;;;;;;;0.80;0.80;;;8.00;99.90;;;;;;4995728;28;20707;-62
2023/04/13 03:57:30;;;;;;;0.70;0.70;;;8.10;99.90;;;;;;4995236;28;20205;-64
2023/04/13 03:59:56;;;;;;;0.77;0.70;;;8.10;99.90;;;;;;4994623;28;20237;-62
2023/04/13 04:02:25;;;;;;;0.60;0.60;;;8.10;99.90;;;;;;4995181;28;20210;-63
2023/04/13 04:04:51;;;;;;;0.77;0.77;;;8.20;99.90;;;;;;4998963;28;20206;-63
2023/04/13 04:07:21;;;;;;;0.90;0.90;;;8.20;99.90;;;;;;5001850;28;20608;-63
2023/04/13 04:09:48;;;;;;;1.10;1.00;;;8.20;99.90;;;;;;5001308;28;20225;-62
2023/04/13 04:12:15;;;;;;;0.68;0.68;;;8.30;99.90;;;;;;5001802;28;20249;-62
2023/04/13 04:14:42;;;;;;;1.10;1.00;;;8.30;99.90;;;;;;4995991;28;20217;-62
2023/04/13 04:17:09;;;;;;;0.90;0.90;;;8.30;99.90;;;;;;4995518;28;20628;-62
2023/04/13 04:19:37;;;;;;;0.90;0.90;;;8.40;99.90;;;;;;4994311;28;20228;-61
2023/04/13 04:22:05;;;;;;;0.80;0.80;;;8.40;99.90;;;;;;4995262;28;20216;-63
2023/04/13 04:24:33;;;;;;;1.00;1.00;;;8.40;99.90;;;;;;4995049;28;20210;-64
2023/04/13 04:27:00;;;;;;;0.80;0.80;;;8.40;99.90;;;;;;4997357;28;20333;-63
2023/04/13 04:29:33;;;;;;;1.02;1.02;;;8.40;99.90;;;;;;4995479;28;20232;-63
2023/04/13 04:32:00;;;;;;;1.08;1.00;;;8.40;99.90;;;;;;4991720;28;20210;-62
2023/04/13 04:34:27;;;;;;;0.88;0.88;;;8.40;99.90;;;;;;4993305;28;20198;-64
2023/04/13 04:36:55;;;;;;;0.80;0.80;;;8.40;99.90;;;;;;4995169;28;20218;-63
2023/04/13 04:39:22;;;;;;;1.00;1.00;;;8.40;99.90;;;;;;4978993;28;20226;-62
2023/04/13 04:41:53;;;;;;;0.88;0.88;;;8.40;99.90;;;;;;4974895;28;20210;-64
2023/04/13 04:44:23;;;;;;;1.13;0.90;;;8.30;99.90;;;;;;4993892;28;20218;-63
2023/04/13 04:46:51;;;;;;;1.03;0.93;;;8.40;99.90;;;;;;4994369;28;20226;-62
2023/04/13 04:49:20;;;;;;;0.80;0.80;;;8.40;99.90;;;;;;4993952;28;20251;-64
2023/04/13 04:51:47;;;;;;;1.00;1.00;;;8.40;99.90;;;;;;4994483;28;20206;-63
2023/04/13 04:54:17;;;;;;;1.17;0.95;;;8.50;99.90;;;;;;4993825;28;20642;-63
2023/04/13 04:56:44;;;;;;;0.97;0.90;;;8.50;99.90;;;;;;4994496;28;20213;-63
2023/04/13 04:59:11;;;;;;;1.08;1.08;;;8.50;99.90;;;;;;4993490;28;20230;-63
2023/04/13 05:01:38;;;;;;;0.87;0.87;;;8.50;99.90;;;;;;5001772;28;20704;-63
2023/04/13 05:04:06;;;;;;;0.80;0.80;;;8.50;99.90;;;;;;4994224;28;20272;-62
2023/04/13 05:06:33;;;;;;;0.80;0.80;;;8.50;99.90;;;;;;4993469;28;20225;-63
2023/04/13 05:09:00;;;;;;;1.10;1.00;;;8.50;99.90;;;;;;4993861;28;20720;-61
2023/04/13 05:11:29;;;;;;;1.05;1.02;;;8.60;99.90;;;;;;4993502;28;20210;-63
2023/04/13 05:13:56;;;;;;;0.85;0.80;;;8.60;99.90;;;;;;4993693;28;20206;-63
2023/04/13 05:16:23;;;;;;;0.90;0.90;;;8.60;99.90;;;;;;4994024;28;20202;-63
2023/04/13 05:18:50;;;;;;;0.80;0.80;;;8.60;99.90;;;;;;4993368;28;20238;-62
2023/04/13 05:21:17;;;;;;;1.00;1.00;;;8.60;99.90;;;;;;4993197;28;20208;-64
2023/04/13 05:23:45;;;;;;;0.90;0.90;;;8.60;99.90;;;;;;4999398;28;20220;-63
2023/04/13 05:26:12;;;;;;;1.15;0.90;;;8.60;99.90;;;;;;5003040;28;20312;-63
2023/04/13 05:28:40;;;;;;;0.80;0.80;;;8.70;99.90;;;;;;5001951;28;20229;-62
2023/04/13 05:31:09;;;;;;;1.17;1.08;;;8.70;99.90;;;;;;5000176;28;20214;-62
2023/04/13 05:33:37;;;;;;;0.93;0.93;;;8.60;99.90;;;;;;4999695;28;20620;-62
2023/04/13 05:36:04;;;;;;;0.90;0.90;;;8.60;99.90;;;;;;5005313;28;20206;-64
2023/04/13 05:38:31;;;;;;;0.80;0.80;;;8.60;99.90;;;;;;4997344;28;20254;-62
2023/04/13 05:40:58;;;;;;;1.02;1.02;;;8.60;99.90;;;;;;4994203;28;20212;-62
2023/04/13 05:43:25;;;;;;;0.90;0.90;;;8.60;99.90;;;;;;5003289;28;20238;-63
2023/04/13 05:45:53;;;;;;;0.88;0.88;;;8.60;99.90;;;;;;4993270;28;20732;-63
2023/04/13 05:48:20;;;;;;;0.80;0.80;;;8.50;99.90;;;;;;4993942;28;20226;-63
2023/04/13 05:50:47;;;;;;;1.15;1.02;;;8.60;99.90;;;;;;4993576;28;20292;-64
2023/04/13 05:53:14;;;;;;;1.00;0.90;;;8.60;99.90;;;;;;4996054;28;20217;-62
2023/04/13 05:55:43;;;;;;;1.00;1.00;;;8.50;99.90;;;;;;5000235;28;20673;-62
2023/04/13 05:58:09;;;;;;;1.07;1.00;;;8.50;99.90;;;;;;4988040;28;20226;-63
2023/04/13 06:00:37;;;;;;;0.87;0.87;;;8.50;99.90;;;;;;4994278;28;20214;-61
2023/04/13 06:03:06;;;;;;;1.83;1.05;;;8.60;99.90;;;;;;5013578;28;20228;-63
2023/04/13 06:05:34;;;;;;;1.27;1.10;;;8.60;99.90;;;;;;5013050;28;20262;-65
2023/04/13 06:08:01;;;;;;;1.27;0.85;;;8.60;99.90;;;;;;5011273;28;20236;-63
2023/04/13 06:10:28;;;;;;;1.00;1.00;;;8.60;99.90;;;;;;5011616;28;20210;-63
2023/04/13 06:12:55;;;;;;;1.20;1.10;;;8.70;99.90;;;;;;5014473;28;20278;-62
2023/04/13 06:15:22;;;;;;;1.33;1.20;;;8.90;99.90;;;;;;5013904;28;20233;-63
2023/04/13 06:17:51;;;;;;;1.30;1.20;;;8.80;99.90;;;;;;5005132;28;20305;-63
2023/04/13 06:20:20;;;;;;;1.58;1.48;;;8.80;99.90;;;;;;4992406;28;20637;-64
2023/04/13 06:22:47;;;;;;;1.80;1.42;;;8.90;99.90;;;;;;4993387;28;20213;-61
2023/04/13 06:25:15;;;;;;;1.20;1.10;;;8.90;99.90;;;;;;4993322;28;20213;-63
2023/04/13 06:27:43;;;;;;;1.10;1.00;;;9.00;99.90;;;;;;4992800;28;20234;-62
2023/04/13 06:30:10;;;;;;;1.10;1.10;;;9.00;99.90;;;;;;4992480;28;20222;-63
2023/04/13 06:32:38;;;;;;;1.50;1.40;;;9.00;99.90;;;;;;4995113;28;20703;-62
2023/04/13 06:35:05;;;;;;;1.10;1.10;;;9.10;99.90;;;;;;5001394;28;20264;-63
2023/04/13 06:37:34;;;;;;;1.38;1.17;;;9.10;99.90;;;;;;4993366;28;20665;-64
2023/04/13 06:40:11;;;;;;;2.05;1.40;;;9.10;99.90;;;;;;4991808;28;20202;-64
2023/04/13 06:42:39;;;;;;;0.93;0.93;;;9.20;99.90;;;;;;4993616;28;20252;-64
2023/04/13 06:45:07;;;;;;;1.20;1.10;;;9.20;99.90;;;;;;4992719;28;20218;-63
2023/04/13 06:47:35;;;;;;;0.90;0.90;;;9.20;99.90;;;;;;4992647;28;20226;-64
2023/04/13 06:50:05;;;;;;;1.10;1.00;;;9.20;99.90;;;;;;4991838;28;20201;-63
2023/04/13 06:52:34;;;;;;;0.80;0.80;;;9.30;99.90;;;;;;4992391;28;20277;-63
2023/04/13 06:55:01;;;;;;;0.90;0.90;;;9.30;99.90;;;;;;4992878;28;20206;-61
2023/04/13 06:57:28;;;;;;;1.00;1.00;;;9.30;99.90;;;;;;4991877;28;20586;-62
2023/04/13 06:59:55;;;;;;;1.30;1.20;;;9.30;99.90;;;;;;4992290;28;20206;-63
2023/04/13 07:02:22;;;;;;;1.23;1.20;;;9.30;99.90;;;;;;4992589;28;20297;-63
2023/04/13 07:04:49;;;;;;;1.20;1.10;;;9.30;99.90;;;;;;4992647;28;20210;-63
2023/04/13 07:07:16;;;;;;;0.87;0.87;;;9.30;99.90;;;;;;4992381;28;20233;-63
2023/04/13 07:09:44;;;;;;;1.07;1.07;;;9.40;99.90;;;;;;4991834;28;20261;-63
2023/04/13 07:12:11;;;;;;;0.93;0.93;;;9.40;99.90;;;;;;4992977;28;20210;-62
2023/04/13 07:14:39;;;;;;;1.30;1.20;;;9.50;99.90;;;;;;4992526;28;20621;-64
2023/04/13 07:17:06;;;;;;;1.10;1.00;;;9.50;99.90;;;;;;4992301;28;20212;-63
2023/04/13 07:19:35;;;;;;;1.33;1.20;;;9.60;99.90;;;;;;4991635;28;20230;-64
2023/04/13 07:22:03;;;;;;;1.00;1.00;;;9.50;99.90;;;;;;4992494;28;20205;-64
2023/04/13 07:24:30;;;;;;;1.20;1.20;;;9.60;99.90;;;;;;4993195;28;20213;-64
2023/04/13 07:26:58;;;;;;;1.30;1.20;;;9.60;99.90;;;;;;4994247;28;20236;-63
2023/04/13 07:29:25;;;;;;;1.10;1.00;;;9.80;99.90;;;;;;4991608;28;20233;-63
2023/04/13 07:31:52;;;;;;;1.20;1.10;;;9.90;99.90;;;;;;4992581;28;20216;-65
2023/04/13 07:34:20;;;;;;;1.27;1.17;;;9.90;99.90;;;;;;4992100;28;20698;-61
2023/04/13 07:36:47;;;;;;;1.20;1.10;;;9.90;99.90;;;;;;4991633;28;20218;-61
2023/04/13 07:39:14;;;;;;;0.90;0.90;;;10.00;99.90;;;;;;4990837;28;20301;-63
2023/04/13 07:41:41;;;;;;;0.97;0.97;;;10.00;99.90;;;;;;4992063;28;20307;-62
2023/04/13 07:44:09;;;;;;;1.30;1.20;;;10.00;99.90;;;;;;4992251;28;20595;-63
2023/04/13 07:46:35;;;;;;;1.10;1.10;;;10.00;99.90;;;;;;4992102;28;20220;-63
2023/04/13 07:49:02;;;;;;;1.20;1.10;;;9.90;99.90;;;;;;4994931;28;20720;-62
2023/04/13 07:51:31;;;;;;;1.47;1.03;;;9.90;99.90;;;;;;4991865;28;20760;-63
2023/04/13 07:53:57;;;;;;;0.87;0.83;;;9.90;99.90;;;;;;4992237;28;20213;-64
2023/04/13 07:56:25;;;;;;;1.40;1.30;;;10.00;99.90;;;;;;4992037;28;20536;-63
2023/04/13 07:58:52;;;;;;;1.27;1.27;;;10.10;99.90;;;;;;4991528;28;20221;-63
2023/04/13 08:01:20;;;;;;;1.30;1.20;;;10.10;99.90;;;;;;4991211;28;20202;-61
2023/04/13 08:03:47;;;;;;;1.30;1.20;;;10.10;99.90;;;;;;4991807;28;20214;-61
2023/04/13 08:06:15;;;;;;;1.40;1.30;;;10.10;99.90;;;;;;4992588;28;20272;-62
2023/04/13 08:08:42;;;;;;;1.47;1.37;;;10.30;99.90;;;;;;4996005;28;20767;-62
2023/04/13 08:11:10;;;;;;;1.37;1.27;;;10.60;99.90;;;;;;5005482;28;20229;-62
2023/04/13 08:13:36;;;;;;;1.30;1.20;;;10.80;99.90;;;;;;4996038;28;20688;-63
2023/04/13 08:16:04;;;;;;;1.40;1.30;;;10.80;99.90;;;;;;4995829;28;20206;-64
2023/04/13 08:18:32;;;;;;;1.20;1.10;;;10.70;99.90;;;;;;4995284;28;20265;-63
2023/04/13 08:20:59;;;;;;;1.40;1.30;;;10.80;99.90;;;;;;4994281;28;20213;-63
2023/04/13 08:23:26;;;;;;;1.50;1.40;;;10.80;99.90;;;;;;4995328;28;20609;-64
2023/04/13 08:25:53;;;;;;;1.80;1.70;;;10.80;99.90;;;;;;4995306;28;20585;-64
2023/04/13 08:28:20;;;;;;;1.50;1.37;;;10.90;99.90;;;;;;4996110;28;20324;-63
2023/04/13 08:30:46;;;;;;;1.20;1.20;;;11.00;99.90;;;;;;4994564;28;20248;-63
2023/04/13 08:33:13;;;;;;;1.50;1.40;;;11.00;99.90;;;;;;4995543;28;20665;-63
2023/04/13 08:35:41;;;;;;;1.30;1.20;;;11.20;99.90;;;;;;4995370;28;20212;-64
2023/04/13 08:38:09;;;;;;;1.38;1.27;;;11.30;99.90;;;;;;4995065;28;20799;-62
2023/04/13 08:40:38;;;;;;;1.42;1.33;;;11.40;99.90;;;;;;4994189;28;20265;-62
2023/04/13 08:43:05;;;;;;;1.50;1.40;;;11.60;99.90;;;;;;4994561;28;20210;-62
2023/04/13 08:45:32;;;;;;;1.40;1.30;;;11.60;99.90;;;;;;4995371;28;20214;-63
2023/04/13 08:48:01;;;;;;;1.33;1.20;;;11.70;99.90;;;;;;4995315;28;20244;-64
2023/04/13 08:50:28;;;;;;;1.73;1.63;;;11.70;99.90;;;;;;4994199;28;20214;-64
2023/04/13 08:52:56;;;;;;;1.67;1.57;;;11.60;99.90;;;;;;4994720;28;20304;-62
2023/04/13 08:55:25;;;;;;;2.13;1.50;;;11.60;99.90;;;;;;4995413;28;20202;-62
2023/04/13 08:57:56;;;;;;;1.50;1.40;;;11.50;99.90;;;;;;4994675;28;20226;-64
2023/04/13 09:00:24;;;;;;;1.40;1.30;;;11.50;99.90;;;;;;4994615;28;20206;-63
2023/04/13 09:02:59;;;;;;;1.60;1.50;;;11.40;99.90;;;;;;4994644;28;20213;-63
2023/04/13 09:05:28;;;;;;;1.47;1.37;;;11.40;99.90;;;;;;4994923;28;20691;-62
2023/04/13 09:08:00;;;;;;;1.30;1.20;;;11.30;99.90;;;;;;4997440;28;20252;-63
2023/04/13 09:10:27;;;;;;;1.20;1.20;;;11.40;99.90;;;;;;4994671;28;20221;-62
2023/04/13 09:12:54;;;;;;;1.23;1.20;;;11.50;99.90;;;;;;4995030;28;20301;-63
2023/04/13 09:15:23;;;;;;;1.37;1.27;;;11.40;99.90;;;;;;4996976;28;20236;-62
2023/04/13 09:17:50;;;;;;;1.30;1.20;;;11.50;99.90;;;;;;4999352;28;20297;-62
2023/04/13 09:20:20;;;;;;;2.13;1.20;;;11.50;99.90;;;;;;4997044;28;20208;-61
2023/04/13 09:22:47;;;;;;;1.50;1.40;;;11.50;99.90;;;;;;5000804;28;20201;-64
2023/04/13 09:25:23;;;;;;;1.10;1.10;;;11.60;99.90;;;;;;4993669;28;20221;-63
2023/04/13 09:27:51;;;;;;;1.10;1.10;;;11.60;99.90;;;;;;4992327;28;20233;-63
2023/04/13 09:30:22;;;;;;;1.60;1.40;;;11.60;99.90;;;;;;4994227;28;20237;-63
2023/04/13 09:33:02;;;;;;;2.77;1.40;;;11.40;99.90;;;;;;4993715;28;20206;-62
2023/04/13 09:35:30;;;;;;;1.20;1.20;;;11.40;99.90;;;;;;4994693;28;20780;-63
2023/04/13 09:37:57;;;;;;;1.50;1.40;;;11.30;99.90;;;;;;4993455;28;20222;-63
2023/04/13 09:40:26;;;;;;;1.17;1.10;;;11.20;99.90;;;;;;4993397;28;20297;-63
2023/04/13 09:42:57;;;;;;;1.17;1.10;;;11.20;99.90;;;;;;4995109;28;20740;-64
2023/04/13 09:45:24;;;;;;;1.40;1.30;;;11.40;99.90;;;;;;4994299;28;20826;-63
2023/04/13 09:47:51;;;;;;;1.20;1.20;;;11.20;99.90;;;;;;4994279;28;20229;-62
2023/04/13 09:50:22;;;;;;;1.60;1.43;;;11.20;99.90;;;;;;4993176;28;20688;-63
2023/04/13 09:52:59;;;;;;;1.50;1.40;;;11.20;99.90;;;;;;4994950;28;20276;-63
2023/04/13 09:55:28;;;;;;;1.60;1.27;;;11.20;99.90;;;;;;4995133;28;20212;-65
2023/04/13 09:57:55;;;;;;;1.70;1.60;;;11.20;99.90;;;;;;4997801;28;20309;-62
2023/04/13 10:00:24;;;;;;;2.05;1.45;;;11.20;99.90;;;;;;4994195;28;20217;-63
2023/04/13 10:02:52;;;;;;;1.60;1.50;;;11.30;99.90;;;;;;5003935;28;20198;-62
2023/04/13 10:05:19;;;;;;;1.30;1.20;;;11.20;99.90;;;;;;5012499;28;20207;-61
2023/04/13 10:07:47;;;;;;;1.13;1.13;;;11.20;99.90;;;;;;5010741;28;20289;-63
2023/04/13 10:10:14;;;;;;;1.55;1.30;;;11.30;99.90;;;;;;5008047;28;20206;-62
2023/04/13 10:12:46;;;;;;;1.40;1.30;;;11.40;99.90;;;;;;5010694;28;20237;-62
2023/04/13 10:15:26;;;;;;;1.47;1.37;;;11.40;99.90;;;;;;4994862;28;20277;-63
2023/04/13 10:18:03;;;;;;;1.27;1.17;;;11.40;99.90;;;;;;4993912;28;20224;-64
2023/04/13 10:20:30;;;;;;;1.50;1.40;;;11.40;99.90;;;;;;4993247;28;20237;-62
2023/04/13 10:22:58;;;;;;;1.50;1.40;;;11.50;99.90;;;;;;4993909;28;20767;-64
2023/04/13 10:25:25;;;;;;;1.00;1.00;;;11.40;99.90;;;;;;4993559;28;20214;-62
2023/04/13 10:28:00;;;;;;;1.60;1.50;;;11.40;99.90;;;;;;4993469;28;20713;-62
2023/04/13 10:30:28;;;;;;;1.40;1.30;;;11.40;99.90;;;;;;4993300;28;20288;-63
2023/04/13 10:33:06;;;;;;;1.20;1.10;;;11.50;99.90;;;;;;4993841;28;20683;-62
2023/04/13 10:35:36;;;;;;;1.30;1.20;;;11.50;99.90;;;;;;4996862;28;20220;-63
2023/04/13 10:38:04;;;;;;;1.30;1.20;;;11.50;99.90;;;;;;5006900;28;20226;-63
2023/04/13 10:40:42;;;;;;;1.20;1.20;;;11.60;99.90;;;;;;4993157;28;20209;-62
2023/04/13 10:43:10;;;;;;;1.60;1.50;;;11.50;99.90;;;;;;4994127;28;20216;-62
2023/04/13 10:45:37;;;;;;;1.13;1.08;;;11.60;99.90;;;;;;4993848;28;20210;-63
2023/04/13 10:48:05;;;;;;;1.40;1.30;;;11.40;99.90;;;;;;4991738;28;20234;-63
2023/04/13 10:50:32;;;;;;;1.40;1.30;;;11.60;99.90;;;;;;4991533;28;20258;-63
2023/04/13 10:53:02;;;;;;;1.13;1.00;;;11.80;99.90;;;;;;4992701;28;20242;-62
2023/04/13 10:55:29;;;;;;;1.30;1.20;;;11.90;99.90;;;;;;4992027;28;20224;-63
2023/04/13 10:57:57;;;;;;;1.23;1.17;;;11.90;99.90;;;;;;4993062;28;20697;-63
2023/04/13 11:00:27;;;;;;;1.00;1.00;;;12.00;99.90;;;;;;4993608;28;20206;-65
2023/04/13 11:02:55;;;;;;;0.93;0.93;;;12.50;99.90;;;;;;4991825;28;20289;-63
2023/04/13 11:05:23;;;;;;;0.70;0.70;;;12.90;99.90;;;;;;4991051;28;20549;-63
2023/04/13 11:07:51;;;;;;;0.80;0.80;;;13.30;99.90;;;;;;4991489;28;20234;-61
2023/04/13 11:10:24;;;;;;;0.82;0.80;;;13.50;99.90;;;;;;4990167;28;20206;-63
2023/04/13 11:12:51;;;;;;;0.60;0.60;;;13.30;99.90;;;;;;4991346;28;20202;-62
2023/04/13 11:15:23;;;;;;;0.57;0.57;;;13.20;99.90;;;;;;4990217;28;20298;-63
2023/04/13 11:17:56;;;;;;;0.85;0.85;;;13.40;99.90;;;;;;4994964;28;20297;-63
2023/04/13 11:20:31;;;;;;;0.93;0.93;;;13.10;99.90;;;;;;4997258;28;20234;-62
2023/04/13 11:23:01;;;;;;;1.17;1.10;;;12.80;99.90;;;;;;4992889;28;20279;-63
2023/04/13 11:25:28;;;;;;;0.87;0.87;;;12.70;99.90;;;;;;4994645;28;20212;-62
2023/04/13 11:27:57;;;;;;;0.97;0.97;;;12.70;99.90;;;;;;4995065;28;20778;-62
2023/04/13 11:30:24;;;;;;;1.17;0.90;;;13.10;99.90;;;;;;4992082;28;20202;-64
2023/04/13 11:32:52;;;;;;;0.83;0.83;;;13.20;99.90;;;;;;4993157;28;20633;-63
2023/04/13 11:35:22;;;;;;;1.00;0.97;;;13.50;99.90;;;;;;4992434;28;20210;-61
2023/04/13 11:37:51;;;;;;;0.73;0.73;;;13.70;99.90;;;;;;4993080;28;20233;-63
2023/04/13 11:40:22;;;;;;;0.95;0.95;;;13.70;99.90;;;;;;4991198;28;20586;-63
2023/04/13 11:42:52;;;;;;;0.90;0.90;;;13.60;99.90;;;;;;4993203;28;20206;-63
2023/04/13 11:45:21;;;;;;;1.10;1.10;;;13.80;99.90;;;;;;4997175;28;20218;-63
2023/04/13 11:47:48;;;;;;;1.30;1.20;;;13.60;99.90;;;;;;4996896;28;20775;-63
2023/04/13 11:50:16;;;;;;;1.00;1.00;;;13.70;99.90;;;;;;4996196;28;20588;-64
2023/04/13 11:52:46;;;;;;;1.00;1.00;;;13.80;99.90;;;;;;4996530;28;20202;-62
2023/04/13 11:55:14;;;;;;;0.98;0.90;;;13.90;99.90;;;;;;4997030;28;20206;-63
2023/04/13 11:57:41;;;;;;;0.80;0.80;;;13.90;99.90;;;;;;4996325;28;20236;-63
2023/04/13 12:00:17;;;;;;;0.80;0.80;;;13.80;99.90;;;;;;4995161;28;20612;-61
2023/04/13 12:02:44;;;;;;;0.93;0.93;;;13.70;99.90;;;;;;4996650;28;20210;-62
2023/04/13 12:05:23;;;;;;;0.85;0.85;;;13.80;99.90;;;;;;4996711;28;20216;-64
2023/04/13 12:07:52;;;;;;;0.93;0.93;;;13.80;99.90;;;;;;4996797;28;20241;-63
2023/04/13 12:10:23;;;;;;;0.95;0.95;;;13.60;99.90;;;;;;4996679;28;20309;-63
2023/04/13 12:12:59;;;;;;;0.70;0.70;;;13.40;99.90;;;;;;4996625;28;20202;-63
2023/04/13 12:15:28;;;;;;;0.90;0.90;;;13.50;99.90;;;;;;4996198;28;20249;-62
2023/04/13 12:17:57;;;;;;;0.80;0.80;;;13.60;99.90;;;;;;4999163;28;20226;-62
2023/04/13 12:20:24;;;;;;;0.90;0.90;;;14.00;99.90;;;;;;5000996;28;20221;-65
2023/04/13 12:22:52;;;;;;;0.83;0.83;;;14.40;99.90;;;;;;4995733;28;20206;-65
2023/04/13 12:25:21;;;;;;;0.80;0.80;;;14.60;99.90;;;;;;4995782;28;20222;-66
2023/04/13 12:27:50;;;;;;;0.80;0.80;;;14.60;99.90;;;;;;4998248;28;20646;-64
2023/04/13 12:30:18;;;;;;;1.10;1.00;;;14.40;99.90;;;;;;4995781;28;20217;-65
2023/04/13 12:32:46;;;;;;;1.00;0.88;;;13.80;99.90;;;;;;4995905;28;20210;-64
2023/04/13 12:35:14;;;;;;;0.90;0.90;;;13.50;99.90;;;;;;4995458;28;20210;-65
2023/04/13 12:37:41;;;;;;;0.93;0.93;;;13.20;99.90;;;;;;4995905;28;20705;-65
2023/04/13 12:40:12;;;;;;;0.80;0.80;;;13.10;99.90;;;;;;4994685;28;20202;-64
2023/04/13 12:42:40;;;;;;;1.20;1.10;;;13.10;99.90;;;;;;4995655;28;20206;-64
2023/04/13 12:45:08;;;;;;;1.70;1.00;;;12.90;99.90;;;;;;4994984;28;20823;-64
2023/04/13 12:47:35;;;;;;;1.10;1.00;;;12.80;99.90;;;;;;4995077;28;20245;-66
2023/04/13 12:50:03;;;;;;;0.90;0.90;;;12.70;99.90;;;;;;4994384;28;20268;-66
2023/04/13 12:52:31;;;;;;;1.02;0.95;;;12.50;99.90;;;;;;4996856;28;20210;-63
2023/04/13 12:54:58;;;;;;;0.90;0.90;;;12.10;99.90;;;;;;4994746;28;20232;-66
2023/04/13 12:57:27;;;;;;;1.50;1.08;;;11.90;99.90;;;;;;4995024;28;20264;-64
2023/04/13 12:59:54;;;;;;;1.00;1.00;;;11.80;99.90;;;;;;4995549;28;20198;-64